Cincinnati, OH

5:11 AM EDT on November 01, 2014 (GMT -0400)
Cincinnati Municipal-Lunken | Change Station
CLOSE
Current Station
Airport
Location: Cincinnati,
Elevation: 482 ft
Nearby Weather Stations
Active Advisory: Freeze Warning

Elev 482 ft 39.10 °N, 84.42 °W | Updated 18 minutes ago

Snow
Snow
35 °F
Feels Like 25 °F
N
16
Wind Variable Wind from North
Gusts 30 mph

Today
High -- | Low -- °F
--% Chance of Precip.
Yesterday
High -- | Low -- °F
Precip. -- in
8:05 AM 6:37 PM
Waxing Gibbous, 64% visible
Pressure 30.11 in
Visibility 10.0 miles
Clouds Overcast 2300 ft
Windchill 25 °F
Dew Point 29 °F
Humidity 78%
Rainfall 0.00 in
Snow Depth Not available.
UV 0 out of 12
Pollen .10 out of 12
Air Quality Not available.
Flu Activity Not available.
METAR KLUK 010853Z AUTO 35014G26KT 10SM OVC023 02/M02 A3010 RMK AO2 PK WND 35026/0802 UPB0756E17SNE0756 SLP194 P0000 60000 T00171017 51012

More Conditions Fewer Conditions

Pressure 30.11 in
Visibility 10.0 miles
Clouds Overcast 2300 ft
Windchill 25 °F
Dew Point 29 °F
Humidity 78%
Rainfall 0.00 in
Snow Depth Not available.
UV 0 out of 12
Pollen .10 out of 12
Air Quality Not available.
Flu Activity Not available.
METAR KLUK 010853Z AUTO 35014G26KT 10SM OVC023 02/M02 A3010 RMK AO2 PK WND 35026/0802 UPB0756E17SNE0756 SLP194 P0000 60000 T00171017 51012

More Conditions Fewer Conditions

10-Day Weather Forecast

Almanac

Astronomy

Nov. 01, 2014 Rise Set
Actual Time
Civil Twilight
Nautical Twilight
Astronomical Twilight
Moon
Length of Visible Light
Length of Day
Tomorrow will be .
, % of the Moon is Illuminated

Today's Extremes

State Highs State Lows

Community

WunderPhotos

Upload Photos

1,766,872 photos uploaded!

WunderBlogs® & News

Nearby

Air Quality

  Air Quality AQ Index Pollutant
Not available.

Snow Depth

Station Depth Elevation

Earthquake Activity

City Distance Mag. Time & Date
Minimum magnitude displayed is 2.5.

Coastal Water Temperatures

Place Temperature

Nearby Weather Stations